sensor_id;sensor_type;location;lat;lon;timestamp;P1;durP1;ratioP1;P2;durP2;ratioP2
41233;SDS011;26968;42.686;23.352;2023-08-30T00:00:07;18.50;;;10.38;;
41233;SDS011;26968;42.686;23.352;2023-08-30T00:02:32;14.00;;;9.98;;
41233;SDS011;26968;42.686;23.352;2023-08-30T00:05:02;20.23;;;9.77;;
41233;SDS011;26968;42.686;23.352;2023-08-30T00:07:28;16.50;;;8.50;;
41233;SDS011;26968;42.686;23.352;2023-08-30T00:09:54;16.60;;;10.52;;
41233;SDS011;26968;42.686;23.352;2023-08-30T00:12:19;13.80;;;8.35;;
41233;SDS011;26968;42.686;23.352;2023-08-30T00:14:46;15.18;;;8.68;;
41233;SDS011;26968;42.686;23.352;2023-08-30T00:17:12;15.68;;;7.75;;
41233;SDS011;26968;42.686;23.352;2023-08-30T00:19:37;15.48;;;7.50;;
41233;SDS011;26968;42.686;23.352;2023-08-30T00:22:03;14.57;;;8.52;;
41233;SDS011;26968;42.686;23.352;2023-08-30T00:24:28;12.77;;;7.40;;
41233;SDS011;26968;42.686;23.352;2023-08-30T00:26:54;15.68;;;7.88;;
41233;SDS011;26968;42.686;23.352;2023-08-30T00:29:19;15.52;;;7.95;;
41233;SDS011;26968;42.686;23.352;2023-08-30T00:31:44;14.52;;;8.13;;
41233;SDS011;26968;42.686;23.352;2023-08-30T00:34:10;13.68;;;7.05;;
41233;SDS011;26968;42.686;23.352;2023-08-30T00:36:35;12.35;;;7.15;;
41233;SDS011;26968;42.686;23.352;2023-08-30T00:39:01;10.98;;;6.78;;
41233;SDS011;26968;42.686;23.352;2023-08-30T00:41:28;16.45;;;6.90;;
41233;SDS011;26968;42.686;23.352;2023-08-30T00:43:54;11.05;;;7.13;;
41233;SDS011;26968;42.686;23.352;2023-08-30T00:46:20;22.45;;;8.15;;
41233;SDS011;26968;42.686;23.352;2023-08-30T00:48:45;14.15;;;7.85;;
41233;SDS011;26968;42.686;23.352;2023-08-30T00:51:11;18.17;;;7.93;;
41233;SDS011;26968;42.686;23.352;2023-08-30T00:53:36;12.75;;;7.43;;
41233;SDS011;26968;42.686;23.352;2023-08-30T00:56:02;12.77;;;7.65;;
41233;SDS011;26968;42.686;23.352;2023-08-30T00:58:28;16.60;;;7.65;;
41233;SDS011;26968;42.686;23.352;2023-08-30T01:00:54;15.07;;;7.97;;
41233;SDS011;26968;42.686;23.352;2023-08-30T01:03:20;12.35;;;7.63;;
41233;SDS011;26968;42.686;23.352;2023-08-30T01:05:46;12.20;;;7.03;;
41233;SDS011;26968;42.686;23.352;2023-08-30T01:08:12;21.25;;;8.30;;
41233;SDS011;26968;42.686;23.352;2023-08-30T01:10:44;9.95;;;7.28;;
41233;SDS011;26968;42.686;23.352;2023-08-30T01:13:18;13.18;;;6.10;;
41233;SDS011;26968;42.686;23.352;2023-08-30T01:15:48;14.80;;;7.07;;
41233;SDS011;26968;42.686;23.352;2023-08-30T01:18:19;10.07;;;6.78;;
41233;SDS011;26968;42.686;23.352;2023-08-30T01:20:51;14.73;;;6.90;;
41233;SDS011;26968;42.686;23.352;2023-08-30T01:28:49;12.77;;;6.97;;
41233;SDS011;26968;42.686;23.352;2023-08-30T01:31:17;13.55;;;7.70;;
41233;SDS011;26968;42.686;23.352;2023-08-30T01:33:44;10.32;;;6.68;;
41233;SDS011;26968;42.686;23.352;2023-08-30T01:36:11;9.85;;;6.25;;
41233;SDS011;26968;42.686;23.352;2023-08-30T01:38:36;13.32;;;6.53;;
41233;SDS011;26968;42.686;23.352;2023-08-30T01:41:03;12.80;;;6.80;;
41233;SDS011;26968;42.686;23.352;2023-08-30T01:43:29;11.65;;;6.43;;
41233;SDS011;26968;42.686;23.352;2023-08-30T01:45:56;11.65;;;6.90;;
41233;SDS011;26968;42.686;23.352;2023-08-30T01:48:24;13.40;;;6.68;;
41233;SDS011;26968;42.686;23.352;2023-08-30T01:50:51;15.65;;;7.03;;
41233;SDS011;26968;42.686;23.352;2023-08-30T01:53:17;14.13;;;6.15;;
41233;SDS011;26968;42.686;23.352;2023-08-30T01:55:43;11.95;;;7.32;;
41233;SDS011;26968;42.686;23.352;2023-08-30T01:58:08;14.80;;;6.90;;
41233;SDS011;26968;42.686;23.352;2023-08-30T02:00:37;13.48;;;7.25;;
41233;SDS011;26968;42.686;23.352;2023-08-30T02:03:11;19.65;;;7.40;;
41233;SDS011;26968;42.686;23.352;2023-08-30T02:05:43;9.25;;;6.47;;
41233;SDS011;26968;42.686;23.352;2023-08-30T02:08:55;13.20;;;6.63;;
41233;SDS011;26968;42.686;23.352;2023-08-30T02:11:34;13.13;;;7.05;;
41233;SDS011;26968;42.686;23.352;2023-08-30T02:14:00;13.60;;;7.15;;
41233;SDS011;26968;42.686;23.352;2023-08-30T02:16:27;20.63;;;7.93;;
41233;SDS011;26968;42.686;23.352;2023-08-30T02:18:53;12.50;;;7.57;;
41233;SDS011;26968;42.686;23.352;2023-08-30T02:21:20;12.15;;;6.75;;
41233;SDS011;26968;42.686;23.352;2023-08-30T02:23:51;17.42;;;6.93;;
41233;SDS011;26968;42.686;23.352;2023-08-30T02:26:20;16.10;;;7.78;;
41233;SDS011;26968;42.686;23.352;2023-08-30T02:28:45;13.50;;;6.43;;
41233;SDS011;26968;42.686;23.352;2023-08-30T02:31:11;18.38;;;7.20;;
41233;SDS011;26968;42.686;23.352;2023-08-30T02:33:36;18.75;;;8.20;;
41233;SDS011;26968;42.686;23.352;2023-08-30T02:36:02;18.88;;;7.55;;
41233;SDS011;26968;42.686;23.352;2023-08-30T02:38:28;16.52;;;7.25;;
41233;SDS011;26968;42.686;23.352;2023-08-30T02:40:54;11.63;;;7.13;;
41233;SDS011;26968;42.686;23.352;2023-08-30T02:43:19;17.55;;;7.65;;
41233;SDS011;26968;42.686;23.352;2023-08-30T02:45:45;15.63;;;7.55;;
41233;SDS011;26968;42.686;23.352;2023-08-30T02:48:10;17.98;;;7.28;;
41233;SDS011;26968;42.686;23.352;2023-08-30T02:50:35;15.18;;;7.22;;
41233;SDS011;26968;42.686;23.352;2023-08-30T02:53:01;15.93;;;7.60;;
41233;SDS011;26968;42.686;23.352;2023-08-30T02:55:26;22.60;;;8.35;;
41233;SDS011;26968;42.686;23.352;2023-08-30T02:57:52;17.02;;;7.75;;
41233;SDS011;26968;42.686;23.352;2023-08-30T03:00:17;15.32;;;7.43;;
41233;SDS011;26968;42.686;23.352;2023-08-30T03:02:42;11.43;;;6.97;;
41233;SDS011;26968;42.686;23.352;2023-08-30T03:05:08;13.95;;;7.97;;
41233;SDS011;26968;42.686;23.352;2023-08-30T03:07:33;15.35;;;7.15;;
41233;SDS011;26968;42.686;23.352;2023-08-30T03:09:59;11.10;;;7.45;;
41233;SDS011;26968;42.686;23.352;2023-08-30T03:12:24;16.63;;;7.00;;
41233;SDS011;26968;42.686;23.352;2023-08-30T03:14:50;18.73;;;7.57;;
41233;SDS011;26968;42.686;23.352;2023-08-30T03:17:16;17.58;;;7.18;;
41233;SDS011;26968;42.686;23.352;2023-08-30T03:19:41;14.15;;;7.95;;
41233;SDS011;26968;42.686;23.352;2023-08-30T03:22:07;15.75;;;8.13;;
41233;SDS011;26968;42.686;23.352;2023-08-30T03:24:32;15.48;;;7.03;;
41233;SDS011;26968;42.686;23.352;2023-08-30T03:26:58;14.82;;;7.50;;
41233;SDS011;26968;42.686;23.352;2023-08-30T03:29:24;16.05;;;7.40;;
41233;SDS011;26968;42.686;23.352;2023-08-30T03:31:50;18.15;;;7.50;;
41233;SDS011;26968;42.686;23.352;2023-08-30T03:34:15;14.45;;;7.53;;
41233;SDS011;26968;42.686;23.352;2023-08-30T03:36:41;11.60;;;7.40;;
41233;SDS011;26968;42.686;23.352;2023-08-30T03:39:09;16.48;;;8.73;;
41233;SDS011;26968;42.686;23.352;2023-08-30T03:41:34;14.80;;;8.07;;
41233;SDS011;26968;42.686;23.352;2023-08-30T03:44:00;13.30;;;7.72;;
41233;SDS011;26968;42.686;23.352;2023-08-30T03:46:25;14.50;;;7.65;;
41233;SDS011;26968;42.686;23.352;2023-08-30T03:48:51;19.90;;;8.02;;
41233;SDS011;26968;42.686;23.352;2023-08-30T03:51:17;15.02;;;8.40;;
41233;SDS011;26968;42.686;23.352;2023-08-30T03:53:42;16.38;;;8.80;;
41233;SDS011;26968;42.686;23.352;2023-08-30T03:56:08;20.15;;;8.00;;
41233;SDS011;26968;42.686;23.352;2023-08-30T03:58:33;15.68;;;7.43;;
41233;SDS011;26968;42.686;23.352;2023-08-30T04:00:59;18.92;;;9.70;;
41233;SDS011;26968;42.686;23.352;2023-08-30T04:03:24;23.73;;;9.95;;
41233;SDS011;26968;42.686;23.352;2023-08-30T04:05:56;19.88;;;10.82;;
41233;SDS011;26968;42.686;23.352;2023-08-30T04:08:21;21.50;;;10.85;;
41233;SDS011;26968;42.686;23.352;2023-08-30T04:10:47;20.15;;;10.07;;
41233;SDS011;26968;42.686;23.352;2023-08-30T04:13:14;23.38;;;10.70;;
41233;SDS011;26968;42.686;23.352;2023-08-30T04:15:40;17.27;;;10.77;;
41233;SDS011;26968;42.686;23.352;2023-08-30T04:18:06;23.80;;;11.38;;
41233;SDS011;26968;42.686;23.352;2023-08-30T04:20:32;21.33;;;11.48;;
41233;SDS011;26968;42.686;23.352;2023-08-30T04:22:58;21.90;;;11.18;;
41233;SDS011;26968;42.686;23.352;2023-08-30T04:25:26;26.20;;;10.55;;
41233;SDS011;26968;42.686;23.352;2023-08-30T04:27:52;19.20;;;11.43;;
41233;SDS011;26968;42.686;23.352;2023-08-30T04:30:18;28.02;;;12.10;;
41233;SDS011;26968;42.686;23.352;2023-08-30T04:32:43;21.75;;;11.70;;
41233;SDS011;26968;42.686;23.352;2023-08-30T04:35:08;16.77;;;10.20;;
41233;SDS011;26968;42.686;23.352;2023-08-30T04:37:34;18.17;;;10.65;;
41233;SDS011;26968;42.686;23.352;2023-08-30T04:40:00;19.98;;;10.07;;
41233;SDS011;26968;42.686;23.352;2023-08-30T04:42:25;24.60;;;10.85;;
41233;SDS011;26968;42.686;23.352;2023-08-30T04:44:51;21.05;;;10.68;;
41233;SDS011;26968;42.686;23.352;2023-08-30T04:47:19;23.05;;;11.30;;
41233;SDS011;26968;42.686;23.352;2023-08-30T04:49:49;22.33;;;11.20;;
41233;SDS011;26968;42.686;23.352;2023-08-30T04:52:15;19.83;;;10.95;;
41233;SDS011;26968;42.686;23.352;2023-08-30T04:54:41;20.77;;;10.80;;
41233;SDS011;26968;42.686;23.352;2023-08-30T04:57:07;30.08;;;11.35;;
41233;SDS011;26968;42.686;23.352;2023-08-30T04:59:33;23.85;;;11.23;;
41233;SDS011;26968;42.686;23.352;2023-08-30T05:01:59;21.10;;;10.60;;
41233;SDS011;26968;42.686;23.352;2023-08-30T05:04:24;23.33;;;11.63;;
41233;SDS011;26968;42.686;23.352;2023-08-30T05:06:50;31.92;;;11.02;;
41233;SDS011;26968;42.686;23.352;2023-08-30T05:09:15;30.23;;;10.82;;
41233;SDS011;26968;42.686;23.352;2023-08-30T05:11:41;19.85;;;9.60;;
41233;SDS011;26968;42.686;23.352;2023-08-30T05:14:06;30.08;;;11.00;;
41233;SDS011;26968;42.686;23.352;2023-08-30T05:16:32;28.05;;;10.57;;
41233;SDS011;26968;42.686;23.352;2023-08-30T05:18:57;21.88;;;10.35;;
41233;SDS011;26968;42.686;23.352;2023-08-30T05:21:22;25.63;;;10.80;;
41233;SDS011;26968;42.686;23.352;2023-08-30T05:23:48;20.88;;;10.20;;
41233;SDS011;26968;42.686;23.352;2023-08-30T05:26:14;21.65;;;9.55;;
41233;SDS011;26968;42.686;23.352;2023-08-30T05:28:41;17.70;;;8.70;;
41233;SDS011;26968;42.686;23.352;2023-08-30T05:31:07;20.58;;;8.85;;
41233;SDS011;26968;42.686;23.352;2023-08-30T05:33:32;21.70;;;8.65;;
41233;SDS011;26968;42.686;23.352;2023-08-30T05:35:58;14.18;;;6.78;;
41233;SDS011;26968;42.686;23.352;2023-08-30T05:38:23;12.00;;;5.95;;
41233;SDS011;26968;42.686;23.352;2023-08-30T05:40:48;9.15;;;4.07;;
41233;SDS011;26968;42.686;23.352;2023-08-30T05:43:14;8.50;;;4.53;;
41233;SDS011;26968;42.686;23.352;2023-08-30T05:45:41;13.18;;;4.65;;
41233;SDS011;26968;42.686;23.352;2023-08-30T05:48:06;14.70;;;4.90;;
41233;SDS011;26968;42.686;23.352;2023-08-30T05:50:32;11.10;;;4.50;;
41233;SDS011;26968;42.686;23.352;2023-08-30T05:52:57;11.10;;;4.93;;
41233;SDS011;26968;42.686;23.352;2023-08-30T05:55:22;18.58;;;5.53;;
41233;SDS011;26968;42.686;23.352;2023-08-30T05:57:48;14.40;;;4.93;;
41233;SDS011;26968;42.686;23.352;2023-08-30T06:00:14;12.68;;;4.88;;
41233;SDS011;26968;42.686;23.352;2023-08-30T06:02:40;12.20;;;4.97;;
41233;SDS011;26968;42.686;23.352;2023-08-30T06:05:06;13.65;;;4.90;;
41233;SDS011;26968;42.686;23.352;2023-08-30T06:07:31;18.30;;;4.93;;
41233;SDS011;26968;42.686;23.352;2023-08-30T06:09:57;18.00;;;5.05;;
41233;SDS011;26968;42.686;23.352;2023-08-30T06:12:23;15.50;;;4.53;;
41233;SDS011;26968;42.686;23.352;2023-08-30T06:14:50;12.32;;;5.68;;
41233;SDS011;26968;42.686;23.352;2023-08-30T06:17:17;20.60;;;5.32;;
41233;SDS011;26968;42.686;23.352;2023-08-30T06:19:44;13.75;;;5.32;;
41233;SDS011;26968;42.686;23.352;2023-08-30T06:22:10;17.90;;;5.60;;
41233;SDS011;26968;42.686;23.352;2023-08-30T06:24:35;12.88;;;4.85;;
41233;SDS011;26968;42.686;23.352;2023-08-30T06:27:01;17.85;;;5.40;;
41233;SDS011;26968;42.686;23.352;2023-08-30T06:29:26;13.68;;;5.03;;
41233;SDS011;26968;42.686;23.352;2023-08-30T06:31:52;10.18;;;4.95;;
41233;SDS011;26968;42.686;23.352;2023-08-30T06:34:17;14.27;;;5.00;;
41233;SDS011;26968;42.686;23.352;2023-08-30T06:36:43;13.25;;;5.97;;
41233;SDS011;26968;42.686;23.352;2023-08-30T06:39:08;16.05;;;5.70;;
41233;SDS011;26968;42.686;23.352;2023-08-30T06:41:33;14.05;;;4.80;;
41233;SDS011;26968;42.686;23.352;2023-08-30T06:43:59;14.13;;;5.10;;
41233;SDS011;26968;42.686;23.352;2023-08-30T06:46:24;12.63;;;5.60;;
41233;SDS011;26968;42.686;23.352;2023-08-30T06:48:50;11.55;;;5.32;;
41233;SDS011;26968;42.686;23.352;2023-08-30T06:51:15;17.17;;;5.45;;
41233;SDS011;26968;42.686;23.352;2023-08-30T06:53:41;17.00;;;5.15;;
41233;SDS011;26968;42.686;23.352;2023-08-30T06:56:06;13.10;;;4.88;;
41233;SDS011;26968;42.686;23.352;2023-08-30T06:58:31;13.00;;;5.20;;
41233;SDS011;26968;42.686;23.352;2023-08-30T07:00:57;10.35;;;5.03;;
41233;SDS011;26968;42.686;23.352;2023-08-30T07:03:23;11.38;;;4.65;;
41233;SDS011;26968;42.686;23.352;2023-08-30T07:05:50;13.48;;;5.88;;
41233;SDS011;26968;42.686;23.352;2023-08-30T07:08:19;12.70;;;4.90;;
41233;SDS011;26968;42.686;23.352;2023-08-30T07:10:44;10.73;;;4.75;;
41233;SDS011;26968;42.686;23.352;2023-08-30T07:13:10;10.38;;;4.60;;
41233;SDS011;26968;42.686;23.352;2023-08-30T07:15:37;9.65;;;5.05;;
41233;SDS011;26968;42.686;23.352;2023-08-30T07:18:04;17.25;;;6.13;;
41233;SDS011;26968;42.686;23.352;2023-08-30T07:20:31;15.80;;;5.50;;
41233;SDS011;26968;42.686;23.352;2023-08-30T07:22:56;18.90;;;5.30;;
41233;SDS011;26968;42.686;23.352;2023-08-30T07:25:22;7.45;;;4.32;;
41233;SDS011;26968;42.686;23.352;2023-08-30T07:27:47;13.10;;;5.18;;
41233;SDS011;26968;42.686;23.352;2023-08-30T07:30:12;9.27;;;5.22;;
41233;SDS011;26968;42.686;23.352;2023-08-30T07:32:38;14.25;;;6.00;;
41233;SDS011;26968;42.686;23.352;2023-08-30T07:35:04;11.68;;;5.25;;
41233;SDS011;26968;42.686;23.352;2023-08-30T07:37:30;9.43;;;5.25;;
41233;SDS011;26968;42.686;23.352;2023-08-30T07:39:56;17.73;;;5.63;;
41233;SDS011;26968;42.686;23.352;2023-08-30T07:42:21;18.02;;;6.25;;
41233;SDS011;26968;42.686;23.352;2023-08-30T07:44:46;12.80;;;6.10;;
41233;SDS011;26968;42.686;23.352;2023-08-30T07:47:12;13.02;;;5.32;;
41233;SDS011;26968;42.686;23.352;2023-08-30T07:49:38;17.45;;;5.95;;
41233;SDS011;26968;42.686;23.352;2023-08-30T07:52:03;13.35;;;5.32;;
41233;SDS011;26968;42.686;23.352;2023-08-30T07:54:29;16.80;;;5.20;;
41233;SDS011;26968;42.686;23.352;2023-08-30T07:56:56;20.27;;;6.65;;
41233;SDS011;26968;42.686;23.352;2023-08-30T07:59:21;17.73;;;5.80;;
41233;SDS011;26968;42.686;23.352;2023-08-30T08:01:47;14.52;;;6.18;;
41233;SDS011;26968;42.686;23.352;2023-08-30T08:04:12;13.90;;;5.65;;
41233;SDS011;26968;42.686;23.352;2023-08-30T08:06:37;12.00;;;4.78;;
41233;SDS011;26968;42.686;23.352;2023-08-30T08:09:03;14.32;;;4.93;;
41233;SDS011;26968;42.686;23.352;2023-08-30T08:11:30;17.63;;;5.38;;
41233;SDS011;26968;42.686;23.352;2023-08-30T08:13:55;11.98;;;5.60;;
41233;SDS011;26968;42.686;23.352;2023-08-30T08:16:20;15.30;;;5.28;;
41233;SDS011;26968;42.686;23.352;2023-08-30T08:18:46;14.75;;;6.30;;
41233;SDS011;26968;42.686;23.352;2023-08-30T08:21:12;21.70;;;6.75;;
41233;SDS011;26968;42.686;23.352;2023-08-30T08:23:38;12.90;;;5.97;;
41233;SDS011;26968;42.686;23.352;2023-08-30T08:26:03;12.07;;;5.13;;
41233;SDS011;26968;42.686;23.352;2023-08-30T08:28:29;19.95;;;6.13;;
41233;SDS011;26968;42.686;23.352;2023-08-30T08:30:54;14.82;;;4.20;;
41233;SDS011;26968;42.686;23.352;2023-08-30T08:33:20;16.70;;;5.65;;
41233;SDS011;26968;42.686;23.352;2023-08-30T08:35:48;13.48;;;5.10;;
41233;SDS011;26968;42.686;23.352;2023-08-30T08:38:14;11.27;;;4.32;;
41233;SDS011;26968;42.686;23.352;2023-08-30T08:40:39;8.60;;;3.55;;
41233;SDS011;26968;42.686;23.352;2023-08-30T08:43:05;14.77;;;4.30;;
41233;SDS011;26968;42.686;23.352;2023-08-30T08:45:37;6.80;;;3.47;;
41233;SDS011;26968;42.686;23.352;2023-08-30T08:48:06;12.88;;;4.03;;
41233;SDS011;26968;42.686;23.352;2023-08-30T08:50:32;13.10;;;4.05;;
41233;SDS011;26968;42.686;23.352;2023-08-30T08:52:59;13.02;;;4.85;;
41233;SDS011;26968;42.686;23.352;2023-08-30T08:55:26;9.02;;;4.10;;
41233;SDS011;26968;42.686;23.352;2023-08-30T08:57:55;8.80;;;4.65;;
41233;SDS011;26968;42.686;23.352;2023-08-30T09:00:22;8.35;;;3.60;;
41233;SDS011;26968;42.686;23.352;2023-08-30T09:02:47;11.02;;;3.83;;
41233;SDS011;26968;42.686;23.352;2023-08-30T09:05:16;6.38;;;3.33;;
41233;SDS011;26968;42.686;23.352;2023-08-30T09:07:41;15.13;;;4.28;;
41233;SDS011;26968;42.686;23.352;2023-08-30T09:10:08;9.02;;;4.15;;
41233;SDS011;26968;42.686;23.352;2023-08-30T09:12:34;6.70;;;3.53;;
41233;SDS011;26968;42.686;23.352;2023-08-30T09:15:00;12.32;;;4.53;;
41233;SDS011;26968;42.686;23.352;2023-08-30T09:17:38;9.45;;;4.45;;
41233;SDS011;26968;42.686;23.352;2023-08-30T09:20:13;10.73;;;4.10;;
41233;SDS011;26968;42.686;23.352;2023-08-30T09:22:39;12.07;;;4.88;;
41233;SDS011;26968;42.686;23.352;2023-08-30T09:25:09;8.80;;;4.07;;
41233;SDS011;26968;42.686;23.352;2023-08-30T09:27:36;11.02;;;4.53;;
41233;SDS011;26968;42.686;23.352;2023-08-30T09:30:07;14.80;;;5.47;;
41233;SDS011;26968;42.686;23.352;2023-08-30T09:32:39;17.45;;;4.68;;
41233;SDS011;26968;42.686;23.352;2023-08-30T09:35:06;13.35;;;4.25;;
41233;SDS011;26968;42.686;23.352;2023-08-30T09:37:31;9.00;;;4.38;;
41233;SDS011;26968;42.686;23.352;2023-08-30T09:39:57;12.45;;;4.05;;
41233;SDS011;26968;42.686;23.352;2023-08-30T09:42:22;11.35;;;4.65;;
41233;SDS011;26968;42.686;23.352;2023-08-30T09:44:49;9.98;;;4.07;;
41233;SDS011;26968;42.686;23.352;2023-08-30T09:47:15;17.42;;;5.07;;
41233;SDS011;26968;42.686;23.352;2023-08-30T09:49:44;15.25;;;6.28;;
41233;SDS011;26968;42.686;23.352;2023-08-30T09:52:11;11.90;;;4.32;;
41233;SDS011;26968;42.686;23.352;2023-08-30T09:54:40;11.80;;;4.90;;
41233;SDS011;26968;42.686;23.352;2023-08-30T09:57:08;10.07;;;4.70;;
41233;SDS011;26968;42.686;23.352;2023-08-30T09:59:37;8.55;;;4.40;;
41233;SDS011;26968;42.686;23.352;2023-08-30T10:02:05;8.35;;;4.22;;
41233;SDS011;26968;42.686;23.352;2023-08-30T10:04:31;12.73;;;4.70;;
41233;SDS011;26968;42.686;23.352;2023-08-30T10:06:57;8.77;;;3.42;;
41233;SDS011;26968;42.686;23.352;2023-08-30T10:09:23;10.57;;;4.28;;
41233;SDS011;26968;42.686;23.352;2023-08-30T10:11:49;6.10;;;3.67;;
41233;SDS011;26968;42.686;23.352;2023-08-30T10:14:15;13.88;;;5.13;;
41233;SDS011;26968;42.686;23.352;2023-08-30T10:16:42;10.45;;;4.10;;
41233;SDS011;26968;42.686;23.352;2023-08-30T10:19:10;9.90;;;4.32;;
41233;SDS011;26968;42.686;23.352;2023-08-30T10:21:39;12.23;;;5.07;;
41233;SDS011;26968;42.686;23.352;2023-08-30T10:24:07;10.68;;;4.07;;
41233;SDS011;26968;42.686;23.352;2023-08-30T10:26:35;12.10;;;4.30;;
41233;SDS011;26968;42.686;23.352;2023-08-30T10:29:03;9.18;;;4.40;;
41233;SDS011;26968;42.686;23.352;2023-08-30T10:31:30;9.52;;;4.28;;
41233;SDS011;26968;42.686;23.352;2023-08-30T10:33:56;10.07;;;4.88;;
41233;SDS011;26968;42.686;23.352;2023-08-30T10:36:22;8.68;;;4.65;;
41233;SDS011;26968;42.686;23.352;2023-08-30T10:38:49;9.63;;;4.05;;
41233;SDS011;26968;42.686;23.352;2023-08-30T10:41:19;10.18;;;4.15;;
41233;SDS011;26968;42.686;23.352;2023-08-30T10:43:49;24.58;;;4.55;;
41233;SDS011;26968;42.686;23.352;2023-08-30T10:46:16;10.02;;;4.53;;
41233;SDS011;26968;42.686;23.352;2023-08-30T10:48:42;7.93;;;4.35;;
41233;SDS011;26968;42.686;23.352;2023-08-30T10:51:21;11.32;;;4.28;;
41233;SDS011;26968;42.686;23.352;2023-08-30T10:54:00;12.52;;;5.25;;
41233;SDS011;26968;42.686;23.352;2023-08-30T10:56:31;10.27;;;4.32;;
41233;SDS011;26968;42.686;23.352;2023-08-30T10:59:01;9.65;;;4.55;;
41233;SDS011;26968;42.686;23.352;2023-08-30T11:01:27;11.98;;;4.45;;
41233;SDS011;26968;42.686;23.352;2023-08-30T11:03:53;9.80;;;4.43;;
41233;SDS011;26968;42.686;23.352;2023-08-30T11:06:23;12.20;;;4.43;;
41233;SDS011;26968;42.686;23.352;2023-08-30T11:08:48;11.75;;;5.50;;
41233;SDS011;26968;42.686;23.352;2023-08-30T11:11:14;11.68;;;4.95;;
41233;SDS011;26968;42.686;23.352;2023-08-30T11:13:41;11.63;;;4.97;;
41233;SDS011;26968;42.686;23.352;2023-08-30T11:16:06;11.27;;;5.30;;
41233;SDS011;26968;42.686;23.352;2023-08-30T11:18:38;8.23;;;4.70;;
41233;SDS011;26968;42.686;23.352;2023-08-30T11:21:07;8.80;;;4.93;;
41233;SDS011;26968;42.686;23.352;2023-08-30T11:23:34;10.95;;;4.60;;
41233;SDS011;26968;42.686;23.352;2023-08-30T11:25:59;11.48;;;5.03;;
41233;SDS011;26968;42.686;23.352;2023-08-30T11:28:28;11.73;;;4.80;;
41233;SDS011;26968;42.686;23.352;2023-08-30T11:30:54;10.40;;;5.43;;
41233;SDS011;26968;42.686;23.352;2023-08-30T11:33:20;10.57;;;4.63;;
41233;SDS011;26968;42.686;23.352;2023-08-30T11:35:48;12.75;;;4.55;;
41233;SDS011;26968;42.686;23.352;2023-08-30T11:38:15;9.13;;;4.75;;
41233;SDS011;26968;42.686;23.352;2023-08-30T11:40:41;9.55;;;4.40;;
41233;SDS011;26968;42.686;23.352;2023-08-30T11:43:07;14.90;;;4.90;;
41233;SDS011;26968;42.686;23.352;2023-08-30T11:45:32;9.02;;;4.13;;
41233;SDS011;26968;42.686;23.352;2023-08-30T11:48:01;7.82;;;4.65;;
41233;SDS011;26968;42.686;23.352;2023-08-30T11:50:27;11.25;;;5.05;;
41233;SDS011;26968;42.686;23.352;2023-08-30T11:52:54;7.25;;;4.78;;
41233;SDS011;26968;42.686;23.352;2023-08-30T11:55:20;12.75;;;4.40;;
41233;SDS011;26968;42.686;23.352;2023-08-30T11:57:50;13.07;;;5.07;;
41233;SDS011;26968;42.686;23.352;2023-08-30T12:00:17;10.38;;;4.60;;
41233;SDS011;26968;42.686;23.352;2023-08-30T12:02:45;10.38;;;5.28;;
41233;SDS011;26968;42.686;23.352;2023-08-30T12:05:14;7.03;;;4.25;;
41233;SDS011;26968;42.686;23.352;2023-08-30T12:07:40;11.50;;;4.88;;
41233;SDS011;26968;42.686;23.352;2023-08-30T12:10:07;7.72;;;4.75;;
41233;SDS011;26968;42.686;23.352;2023-08-30T12:12:33;9.23;;;4.78;;
41233;SDS011;26968;42.686;23.352;2023-08-30T12:15:01;11.50;;;4.38;;
41233;SDS011;26968;42.686;23.352;2023-08-30T12:17:34;11.27;;;5.10;;
41233;SDS011;26968;42.686;23.352;2023-08-30T12:20:00;10.15;;;4.57;;
41233;SDS011;26968;42.686;23.352;2023-08-30T12:22:36;7.72;;;4.93;;
41233;SDS011;26968;42.686;23.352;2023-08-30T12:25:18;8.05;;;4.78;;
41233;SDS011;26968;42.686;23.352;2023-08-30T12:27:48;9.90;;;4.65;;
41233;SDS011;26968;42.686;23.352;2023-08-30T12:30:16;10.05;;;5.10;;
41233;SDS011;26968;42.686;23.352;2023-08-30T12:32:43;8.73;;;5.15;;
41233;SDS011;26968;42.686;23.352;2023-08-30T12:35:09;7.43;;;4.80;;
41233;SDS011;26968;42.686;23.352;2023-08-30T12:37:34;10.02;;;4.97;;
41233;SDS011;26968;42.686;23.352;2023-08-30T12:40:00;11.25;;;5.43;;
41233;SDS011;26968;42.686;23.352;2023-08-30T12:42:25;7.90;;;5.28;;
41233;SDS011;26968;42.686;23.352;2023-08-30T12:44:51;8.30;;;5.15;;
41233;SDS011;26968;42.686;23.352;2023-08-30T12:47:17;12.68;;;5.00;;
41233;SDS011;26968;42.686;23.352;2023-08-30T12:49:42;6.47;;;5.38;;
41233;SDS011;26968;42.686;23.352;2023-08-30T12:52:08;7.40;;;4.82;;
41233;SDS011;26968;42.686;23.352;2023-08-30T12:54:33;8.23;;;5.18;;
41233;SDS011;26968;42.686;23.352;2023-08-30T12:56:58;11.60;;;5.28;;
41233;SDS011;26968;42.686;23.352;2023-08-30T12:59:24;12.25;;;5.53;;
41233;SDS011;26968;42.686;23.352;2023-08-30T13:01:49;8.55;;;4.82;;
41233;SDS011;26968;42.686;23.352;2023-08-30T13:04:15;9.07;;;5.25;;
41233;SDS011;26968;42.686;23.352;2023-08-30T13:06:40;8.30;;;5.60;;
41233;SDS011;26968;42.686;23.352;2023-08-30T13:09:06;9.40;;;5.38;;
41233;SDS011;26968;42.686;23.352;2023-08-30T13:11:31;8.73;;;5.07;;
41233;SDS011;26968;42.686;23.352;2023-08-30T13:13:57;7.90;;;5.25;;
41233;SDS011;26968;42.686;23.352;2023-08-30T13:16:23;12.90;;;5.65;;
41233;SDS011;26968;42.686;23.352;2023-08-30T13:18:49;8.85;;;4.93;;
41233;SDS011;26968;42.686;23.352;2023-08-30T13:21:15;13.65;;;5.60;;
41233;SDS011;26968;42.686;23.352;2023-08-30T13:23:40;8.98;;;4.72;;
41233;SDS011;26968;42.686;23.352;2023-08-30T13:26:06;8.80;;;4.75;;
41233;SDS011;26968;42.686;23.352;2023-08-30T13:28:31;12.15;;;5.15;;
41233;SDS011;26968;42.686;23.352;2023-08-30T13:30:56;8.55;;;5.05;;
41233;SDS011;26968;42.686;23.352;2023-08-30T13:33:23;12.57;;;4.90;;
41233;SDS011;26968;42.686;23.352;2023-08-30T13:35:49;12.02;;;5.25;;
41233;SDS011;26968;42.686;23.352;2023-08-30T13:38:16;8.05;;;4.13;;
41233;SDS011;26968;42.686;23.352;2023-08-30T13:40:42;7.15;;;4.47;;
41233;SDS011;26968;42.686;23.352;2023-08-30T13:43:07;10.38;;;4.78;;
41233;SDS011;26968;42.686;23.352;2023-08-30T13:45:32;7.00;;;4.13;;
41233;SDS011;26968;42.686;23.352;2023-08-30T13:47:58;11.82;;;4.40;;
41233;SDS011;26968;42.686;23.352;2023-08-30T13:50:24;8.02;;;4.30;;
41233;SDS011;26968;42.686;23.352;2023-08-30T13:52:55;8.00;;;4.03;;
41233;SDS011;26968;42.686;23.352;2023-08-30T13:55:20;9.23;;;4.90;;
41233;SDS011;26968;42.686;23.352;2023-08-30T13:57:46;7.68;;;4.55;;
41233;SDS011;26968;42.686;23.352;2023-08-30T14:00:11;7.75;;;4.10;;
41233;SDS011;26968;42.686;23.352;2023-08-30T14:02:38;7.55;;;4.03;;
41233;SDS011;26968;42.686;23.352;2023-08-30T14:05:03;9.63;;;4.28;;
41233;SDS011;26968;42.686;23.352;2023-08-30T14:07:30;6.97;;;4.32;;
41233;SDS011;26968;42.686;23.352;2023-08-30T14:09:55;7.35;;;4.15;;
41233;SDS011;26968;42.686;23.352;2023-08-30T14:12:21;8.50;;;4.32;;
41233;SDS011;26968;42.686;23.352;2023-08-30T14:14:46;7.43;;;4.10;;
41233;SDS011;26968;42.686;23.352;2023-08-30T14:17:11;8.77;;;4.47;;
41233;SDS011;26968;42.686;23.352;2023-08-30T14:19:37;12.60;;;4.70;;
41233;SDS011;26968;42.686;23.352;2023-08-30T14:22:03;7.60;;;3.83;;
41233;SDS011;26968;42.686;23.352;2023-08-30T14:24:30;8.95;;;4.40;;